Time;durP1;ratioP1;P1;durP2;ratioP2;P2;SDS_P1;SDS_P2;PMS_P1;PMS_P2;Temp;Humidity;BMP_temperature;BMP_pressure;BME280_temperature;BME280_humidity;BME280_pressure;Samples;Min_cycle;Max_cycle;Signal;HPM_P1;HPM_P2
2024/01/13 00:00:43;;;;;;;15.60;13.90;;;;;;;21.20;23.71;95434.09;6157342;28;110085;-56
2024/01/13 00:03:46;;;;;;;14.27;12.77;;;;;;;21.19;23.64;95433.28;6160733;28;110145;-56
2024/01/13 00:06:51;;;;;;;14.17;12.77;;;;;;;21.18;23.59;95436.25;6159645;28;109068;-56
2024/01/13 00:09:54;;;;;;;14.50;13.10;;;;;;;21.17;23.73;95427.47;6138571;28;109044;-56
2024/01/13 00:12:57;;;;;;;13.83;12.53;;;;;;;21.14;23.71;95413.94;6135582;28;110151;-57
2024/01/13 00:16:00;;;;;;;14.73;13.33;;;;;;;21.16;23.68;95406.44;6159286;28;110707;-57
2024/01/13 00:19:03;;;;;;;14.90;13.50;;;;;;;21.14;23.50;95411.28;6151220;28;109730;-55
2024/01/13 00:22:08;;;;;;;14.23;12.93;;;;;;;21.14;23.86;95405.94;6154485;28;109037;-55
2024/01/13 00:25:11;;;;;;;13.60;12.40;;;;;;;21.14;23.75;95408.63;6158884;28;111618;-55
2024/01/13 00:28:14;;;;;;;15.33;13.77;;;;;;;21.14;23.62;95409.41;6159872;28;109024;-55
2024/01/13 00:31:30;;;;;;;13.37;12.13;;;;;;;21.08;23.62;95401.81;6155562;28;109955;-56
2024/01/13 00:34:33;;;;;;;13.63;12.23;;;;;;;21.11;23.61;95420.63;6157698;28;112679;-55
2024/01/13 00:37:38;;;;;;;13.20;12.00;;;;;;;21.11;23.41;95407.31;6156828;28;109323;-55
2024/01/13 00:40:41;;;;;;;14.20;12.87;;;;;;;21.12;23.81;95410.78;6154491;28;109313;-54
2024/01/13 00:43:44;;;;;;;14.90;13.40;;;;;;;21.12;23.90;95411.56;6154150;28;109198;-55
2024/01/13 00:46:47;;;;;;;14.60;13.20;;;;;;;21.11;23.80;95420.63;6158973;28;109076;-55
2024/01/13 00:49:50;;;;;;;14.03;12.73;;;;;;;21.11;23.49;95411.84;6158550;28;109224;-55
2024/01/13 00:52:54;;;;;;;13.40;12.10;;;;;;;21.12;23.50;95410.78;6148128;28;109327;-55
2024/01/13 00:55:58;;;;;;;13.47;12.17;;;;;;;21.11;23.56;95409.19;6158478;28;108703;-55
2024/01/13 00:59:01;;;;;;;13.77;12.47;;;;;;;21.09;23.77;95404.16;6153885;28;109101;-55
2024/01/13 01:02:04;;;;;;;14.33;12.93;;;;;;;21.07;23.73;95409.00;6160025;28;110067;-54
2024/01/13 01:05:08;;;;;;;12.30;11.20;;;;;;;21.09;23.67;95408.69;6148090;28;109098;-55
2024/01/13 01:08:12;;;;;;;13.03;11.83;;;;;;;21.08;23.52;95410.56;6155424;28;109277;-55
2024/01/13 01:11:26;;;;;;;13.23;12.03;;;;;;;21.08;23.65;95401.81;6159813;28;109602;-55
2024/01/13 01:14:31;;;;;;;13.57;12.30;;;;;;;21.08;23.62;95399.94;6154904;28;109118;-55
2024/01/13 01:17:34;;;;;;;14.07;12.67;;;;;;;21.07;23.68;95381.59;6152119;28;109342;-55
2024/01/13 01:20:37;;;;;;;14.17;12.77;;;;;;;21.07;23.63;95374.41;6158838;28;110020;-55
2024/01/13 01:23:41;;;;;;;13.00;11.70;;;;;;;21.07;23.82;95376.28;6160503;28;109971;-55
2024/01/13 01:26:45;;;;;;;12.00;10.80;;;;;;;21.06;23.58;95366.72;6151737;28;110122;-55
2024/01/13 01:29:48;;;;;;;13.30;12.00;;;;;;;21.06;23.48;95366.72;6156643;28;109213;-55
2024/01/13 01:32:51;;;;;;;12.87;11.67;;;;;;;21.06;23.42;95364.06;6162214;28;109365;-55
2024/01/13 01:35:54;;;;;;;13.33;12.00;;;;;;;21.07;23.49;95358.44;6162759;28;110353;-55
2024/01/13 01:38:59;;;;;;;12.90;11.70;;;;;;;21.07;23.24;95363.75;6152631;28;109749;-55
2024/01/13 01:42:02;;;;;;;14.63;13.23;;;;;;;21.06;23.58;95359.53;6162637;28;108775;-55
2024/01/13 01:45:06;;;;;;;12.87;11.57;;;;;;;21.05;23.60;95357.94;6161735;28;109982;-55
2024/01/13 01:48:09;;;;;;;12.13;10.97;;;;;;;21.07;23.64;95369.09;6160948;28;109234;-55
2024/01/13 01:51:27;;;;;;;12.87;11.67;;;;;;;21.06;23.67;95364.06;6129874;28;110159;-55
2024/01/13 01:54:32;;;;;;;14.03;12.67;;;;;;;21.07;23.55;95370.94;6159953;28;110067;-55
2024/01/13 01:57:38;;;;;;;12.77;11.43;;;;;;;21.05;23.50;95373.13;6161285;28;110115;-55
2024/01/13 02:00:41;;;;;;;13.40;12.00;;;;;;;21.04;23.71;95376.84;6149280;28;109224;-56
2024/01/13 02:03:46;;;;;;;14.10;12.70;;;;;;;21.04;23.68;95377.63;6162411;28;109419;-55
2024/01/13 02:06:50;;;;;;;13.00;11.80;;;;;;;21.03;23.83;95369.94;6161983;28;109427;-55
2024/01/13 02:09:54;;;;;;;13.63;12.30;;;;;;;21.01;23.40;95369.44;6162774;28;109067;-55
2024/01/13 02:12:58;;;;;;;13.40;12.00;;;;;;;21.02;23.62;95371.00;6150274;28;109859;-55
2024/01/13 02:16:01;;;;;;;12.83;11.50;;;;;;;21.03;23.50;95370.72;6159776;28;110093;-55
2024/01/13 02:19:04;;;;;;;13.20;11.80;;;;;;;21.01;23.54;95366.78;6155319;28;109051;-55
2024/01/13 02:22:09;;;;;;;12.47;11.23;;;;;;;21.00;23.60;95375.81;6149538;28;109329;-55
2024/01/13 02:25:12;;;;;;;13.63;12.30;;;;;;;21.02;23.37;95363.03;6150530;28;109308;-55
2024/01/13 02:28:17;;;;;;;13.03;11.80;;;;;;;21.00;23.60;95350.00;6145303;28;109189;-55
2024/01/13 02:31:40;;;;;;;13.37;11.97;;;;;;;21.02;23.37;95352.38;6161166;28;111131;-55
2024/01/13 02:34:43;;;;;;;13.17;11.87;;;;;;;21.01;23.40;95346.28;6151655;28;109165;-55
2024/01/13 02:37:47;;;;;;;13.00;11.20;;;;;;;21.24;23.35;95349.13;6160525;28;109535;-51
2024/01/13 02:40:50;;;;;;;13.77;12.37;;;;;;;21.50;23.15;95350.25;6161600;28;109117;-51
2024/01/13 02:43:53;;;;;;;12.70;11.50;;;;;;;21.65;22.68;95349.97;6160501;28;110046;-51
2024/01/13 02:46:56;;;;;;;13.63;12.23;;;;;;;21.72;22.44;95344.25;6149370;28;109113;-51
2024/01/13 02:49:59;;;;;;;12.57;11.37;;;;;;;21.76;22.76;95342.56;6162064;28;110240;-51
2024/01/13 02:53:04;;;;;;;12.73;11.53;;;;;;;21.78;22.28;95343.84;6160953;28;109339;-51
2024/01/13 02:56:07;;;;;;;13.60;12.37;;;;;;;21.79;22.26;95344.66;6160666;28;109274;-51
2024/01/13 02:59:10;;;;;;;12.70;11.43;;;;;;;21.80;22.37;95341.69;6149256;28;109233;-50
2024/01/13 03:02:13;;;;;;;14.53;12.70;;;;;;;21.83;22.35;95350.97;6161676;28;109112;-51
2024/01/13 03:05:16;;;;;;;13.43;12.10;;;;;;;21.82;22.35;95354.72;6161077;28;110902;-51
2024/01/13 03:08:21;;;;;;;13.07;11.80;;;;;;;21.82;22.14;95357.41;6156413;28;109339;-50
2024/01/13 03:11:39;;;;;;;13.57;12.37;;;;;;;21.82;22.35;95370.72;6156213;28;109269;-50
2024/01/13 03:14:42;;;;;;;13.20;11.97;;;;;;;21.81;22.03;95374.44;6161526;28;109107;-50
2024/01/13 03:17:45;;;;;;;12.23;11.03;;;;;;;21.80;22.25;95384.31;6160445;28;109416;-51
2024/01/13 03:20:49;;;;;;;13.13;11.83;;;;;;;21.61;22.58;95383.59;6150237;28;112002;-51
2024/01/13 03:23:53;;;;;;;12.87;11.43;;;;;;;21.69;22.56;95384.81;6159660;28;109100;-51
2024/01/13 03:26:56;;;;;;;13.67;12.20;;;;;;;21.70;22.75;95395.16;6157142;28;109027;-52
2024/01/13 03:30:00;;;;;;;13.50;12.23;;;;;;;21.73;22.73;95381.25;6159744;28;110115;-51
2024/01/13 03:33:03;;;;;;;12.07;10.87;;;;;;;21.72;22.55;95392.22;6149271;28;110072;-51
2024/01/13 03:36:06;;;;;;;12.50;11.43;;;;;;;21.69;22.31;95384.81;6159347;28;110001;-52
2024/01/13 03:39:10;;;;;;;12.93;11.73;;;;;;;21.68;22.44;95389.34;6158778;28;109536;-52
2024/01/13 03:42:14;;;;;;;13.83;12.37;;;;;;;21.68;22.55;95388.56;6156953;28;110533;-52
2024/01/13 03:45:17;;;;;;;13.50;12.10;;;;;;;21.71;22.69;95383.44;6153985;28;110164;-52
2024/01/13 03:48:20;;;;;;;13.47;12.17;;;;;;;21.71;22.18;95378.09;6158456;28;109702;-52
2024/01/13 03:51:24;;;;;;;14.13;12.73;;;;;;;21.69;22.21;95377.59;6160375;28;109836;-52
2024/01/13 03:54:28;;;;;;;12.10;11.00;;;;;;;21.70;22.46;95373.06;6148481;28;109249;-52
2024/01/13 03:57:31;;;;;;;12.20;10.90;;;;;;;21.72;22.19;95378.88;6158170;28;109170;-52
2024/01/13 04:00:35;;;;;;;12.90;11.70;;;;;;;21.69;22.32;95371.50;6159643;28;110407;-51
2024/01/13 04:03:39;;;;;;;12.83;11.53;;;;;;;21.69;22.29;95376.81;6157768;28;109250;-52
2024/01/13 04:06:43;;;;;;;13.70;12.30;;;;;;;21.73;22.28;95377.81;6148099;28;109164;-52
2024/01/13 04:09:47;;;;;;;12.90;11.60;;;;;;;21.70;22.52;95368.53;6159109;28;109372;-52
2024/01/13 04:12:50;;;;;;;13.60;12.20;;;;;;;21.68;22.25;95373.38;6160164;28;109002;-51
2024/01/13 04:15:53;;;;;;;12.43;11.23;;;;;;;21.68;22.13;95378.69;6159349;28;109025;-51
2024/01/13 04:18:56;;;;;;;12.60;11.40;;;;;;;21.73;22.31;95378.59;6148585;28;109172;-51
2024/01/13 04:22:00;;;;;;;12.50;11.40;;;;;;;21.73;22.42;95378.59;6159268;28;109243;-51
2024/01/13 04:25:05;;;;;;;12.53;11.40;;;;;;;21.73;22.62;95383.91;6158164;28;109097;-51
2024/01/13 04:28:08;;;;;;;14.27;12.00;;;;;;;21.73;21.96;95393.78;6153170;28;110046;-51
2024/01/13 04:31:11;;;;;;;13.37;12.07;;;;;;;21.72;21.95;95398.31;6151463;28;109064;-52
2024/01/13 04:34:14;;;;;;;12.00;10.90;;;;;;;21.72;22.06;95406.31;6159705;28;109174;-52
2024/01/13 04:37:18;;;;;;;12.40;11.20;;;;;;;21.69;22.25;95408.78;6155009;28;109866;-51
2024/01/13 04:40:22;;;;;;;13.40;12.10;;;;;;;21.70;22.53;95400.50;6147913;28;109652;-51
2024/01/13 04:43:25;;;;;;;13.00;11.70;;;;;;;21.70;21.90;95399.69;6157532;28;109213;-52
2024/01/13 04:46:29;;;;;;;13.87;12.57;;;;;;;21.69;22.07;95398.13;6159572;28;109312;-51
2024/01/13 04:49:32;;;;;;;12.60;11.40;;;;;;;21.69;22.33;95403.44;6157083;28;110217;-52
2024/01/13 04:52:37;;;;;;;12.20;11.00;;;;;;;21.72;22.36;95408.19;6149600;28;109619;-52
2024/01/13 04:55:41;;;;;;;13.53;12.17;;;;;;;21.70;22.06;95402.38;6148320;28;109541;-51
2024/01/13 04:58:44;;;;;;;12.83;11.63;;;;;;;21.68;22.47;95407.19;6161383;28;110286;-51
2024/01/13 05:01:48;;;;;;;11.80;10.70;;;;;;;21.67;22.30;95405.59;6160945;28;111193;-51
2024/01/13 05:04:51;;;;;;;13.13;11.93;;;;;;;21.68;22.30;95402.66;6157522;28;111537;-51
2024/01/13 05:07:55;;;;;;;12.80;11.53;;;;;;;21.67;22.45;95400.28;6163768;28;110187;-51
2024/01/13 05:10:59;;;;;;;12.40;11.13;;;;;;;21.64;22.07;95399.00;6160765;28;109380;-51
2024/01/13 05:14:02;;;;;;;13.30;11.90;;;;;;;21.67;22.32;95400.28;6152399;28;110079;-53
2024/01/13 05:17:05;;;;;;;12.07;11.00;;;;;;;21.68;21.97;95396.56;6160433;28;110876;-51
2024/01/13 05:20:09;;;;;;;12.80;11.57;;;;;;;21.69;21.84;95398.91;6163429;28;110133;-52
2024/01/13 05:23:12;;;;;;;11.50;10.40;;;;;;;21.67;22.05;95384.28;6160361;28;110111;-51
2024/01/13 05:26:17;;;;;;;12.60;11.40;;;;;;;21.65;21.88;95375.81;6147815;28;110039;-51
2024/01/13 05:29:20;;;;;;;13.10;11.80;;;;;;;21.67;22.26;95368.31;6162279;28;110707;-51
2024/01/13 05:32:23;;;;;;;12.40;11.10;;;;;;;21.68;22.21;95370.69;6161899;28;109468;-51
2024/01/13 05:35:26;;;;;;;12.53;11.33;;;;;;;21.69;21.93;95374.16;6160512;28;109365;-52
2024/01/13 05:38:29;;;;;;;11.53;10.43;;;;;;;21.75;21.68;95375.63;6150228;28;109517;-52
2024/01/13 05:41:34;;;;;;;11.93;10.73;;;;;;;21.72;22.01;95376.22;6162969;28;109223;-52
2024/01/13 05:44:37;;;;;;;12.67;11.40;;;;;;;21.74;21.88;95374.06;6160812;28;109243;-52
2024/01/13 05:47:40;;;;;;;12.70;11.40;;;;;;;21.65;22.32;95378.47;6157686;28;109180;-51
2024/01/13 05:50:43;;;;;;;12.10;10.90;;;;;;;21.63;22.51;95383.31;6149695;28;109005;-52
2024/01/13 05:53:46;;;;;;;11.90;10.63;;;;;;;21.66;23.02;95393.38;6160102;28;110370;-55
2024/01/13 05:56:51;;;;;;;13.37;10.43;;;;;;;21.18;23.42;95393.66;6160908;28;110022;-54
2024/01/13 05:59:54;;;;;;;13.53;10.93;;;;;;;21.00;23.68;95387.25;6151960;28;109442;-56
2024/01/13 06:02:58;;;;;;;12.93;11.63;;;;;;;20.90;24.00;95388.19;6161085;28;109260;-55
2024/01/13 06:06:02;;;;;;;33.33;30.57;;;;;;;20.75;24.23;95398.28;6161648;28;109400;-55
2024/01/13 06:09:06;;;;;;;99.13;91.13;;;;;;;20.66;24.34;95395.44;6161194;28;109432;-54
2024/01/13 06:12:13;;;;;;;59.17;54.23;;;;;;;20.63;24.62;95390.72;6149400;28;108964;-56
2024/01/13 06:15:16;;;;;;;57.93;53.23;;;;;;;20.58;24.60;95393.44;6162372;28;109121;-55
2024/01/13 06:18:19;;;;;;;57.83;53.13;;;;;;;20.56;24.55;95384.97;6156921;28;110052;-56
2024/01/13 06:21:23;;;;;;;57.10;52.10;;;;;;;20.55;24.59;95384.19;6151130;28;109641;-55
2024/01/13 06:24:26;;;;;;;61.10;55.90;;;;;;;20.56;24.64;95392.94;6155895;28;109974;-56
2024/01/13 06:27:31;;;;;;;56.87;51.90;;;;;;;20.54;24.70;95395.13;6158697;28;110381;-55
2024/01/13 06:30:34;;;;;;;52.33;48.00;;;;;;;20.51;25.08;95393.81;6161180;28;109207;-56
2024/01/13 06:33:37;;;;;;;47.07;43.07;;;;;;;20.51;24.78;95391.16;6148824;28;110144;-56
2024/01/13 06:36:40;;;;;;;43.63;39.93;;;;;;;20.49;25.01;95392.50;6159022;28;109121;-56
2024/01/13 06:39:43;;;;;;;41.60;38.07;;;;;;;20.46;25.03;95379.78;6157645;28;110252;-56
2024/01/13 06:42:48;;;;;;;40.77;37.23;;;;;;;20.45;24.86;95388.84;6161433;28;109358;-55
2024/01/13 06:45:51;;;;;;;37.87;34.70;;;;;;;20.45;24.97;95386.97;6151271;28;109083;-56
2024/01/13 06:48:54;;;;;;;35.00;31.70;;;;;;;20.72;24.97;95394.31;6159491;28;109434;-56
2024/01/13 06:51:57;;;;;;;32.07;29.23;;;;;;;20.80;24.73;95398.97;6157323;28;109309;-57
2024/01/13 06:55:02;;;;;;;29.53;26.97;;;;;;;20.68;24.68;95400.50;6156005;28;109574;-55
2024/01/13 06:58:06;;;;;;;28.00;25.60;;;;;;;20.89;24.25;95407.91;6145945;28;109326;-51
2024/01/13 07:01:13;;;;;;;26.23;23.70;;;;;;;21.30;23.75;95407.28;6151183;28;110175;-51
2024/01/13 07:04:17;;;;;;;25.07;22.87;;;;;;;21.44;23.53;95408.13;6159180;28;109389;-51
2024/01/13 07:07:20;;;;;;;24.20;21.90;;;;;;;21.57;23.22;95408.47;6156125;28;110481;-51
2024/01/13 07:10:24;;;;;;;25.13;22.73;;;;;;;21.21;23.57;95414.38;6152916;28;109409;-55
2024/01/13 07:13:28;;;;;;;22.13;20.13;;;;;;;20.84;24.36;95418.63;6159127;28;110588;-55
2024/01/13 07:16:32;;;;;;;23.60;21.60;;;;;;;20.68;25.08;95416.47;6158477;28;109082;-55
2024/01/13 07:19:36;;;;;;;24.00;21.70;;;;;;;20.59;24.92;95418.97;6151090;28;109243;-55
2024/01/13 07:22:40;;;;;;;21.20;19.20;;;;;;;20.58;24.71;95420.03;6159266;28;109177;-54
2024/01/13 07:25:43;;;;;;;20.47;18.67;;;;;;;20.52;24.73;95418.53;6160488;28;109289;-55
2024/01/13 07:28:48;;;;;;;19.57;17.60;;;;;;;20.49;24.72;95429.72;6160502;28;109108;-56
2024/01/13 07:31:51;;;;;;;19.63;17.73;;;;;;;20.44;24.73;95427.94;6150967;28;110481;-55
2024/01/13 07:34:54;;;;;;;20.07;16.90;;;;;;;20.44;24.79;95433.25;6161171;28;110118;-55
2024/01/13 07:37:57;;;;;;;19.30;17.40;;;;;;;20.43;24.65;95436.19;6160923;28;109134;-55
2024/01/13 07:41:00;;;;;;;17.57;15.97;;;;;;;20.42;24.61;95434.59;6156858;28;111033;-56
2024/01/13 07:44:04;;;;;;;17.50;15.80;;;;;;;20.39;24.50;95435.19;6155285;28;110143;-55
2024/01/13 07:47:07;;;;;;;16.63;15.03;;;;;;;20.39;24.33;95440.50;6161264;28;109245;-55
2024/01/13 07:50:11;;;;;;;16.37;14.47;;;;;;;20.37;24.74;95443.44;6161291;28;109112;-56
2024/01/13 07:53:14;;;;;;;16.17;14.67;;;;;;;20.34;24.54;95436.03;6151154;28;109388;-56
2024/01/13 07:56:17;;;;;;;16.67;15.10;;;;;;;20.32;24.32;95441.63;6160982;28;109028;-56
2024/01/13 07:59:23;;;;;;;16.03;14.37;;;;;;;20.32;24.34;95430.97;6160353;28;110108;-55
2024/01/13 08:02:26;;;;;;;16.00;14.50;;;;;;;20.29;24.43;95434.22;6160712;28;109534;-56
2024/01/13 08:05:29;;;;;;;15.63;14.13;;;;;;;20.30;24.48;95429.69;6150876;28;109724;-55
2024/01/13 08:08:35;;;;;;;16.60;14.90;;;;;;;20.30;24.42;95430.47;6160809;28;109452;-54
2024/01/13 08:11:38;;;;;;;14.90;13.50;;;;;;;20.31;24.07;95424.09;6160677;28;109138;-54
2024/01/13 08:14:47;;;;;;;15.03;13.63;;;;;;;20.32;24.24;95436.31;6160636;28;109017;-54
2024/01/13 08:17:51;;;;;;;14.67;13.27;;;;;;;20.33;23.99;95437.09;6150624;28;109217;-54
2024/01/13 08:20:54;;;;;;;13.87;12.57;;;;;;;20.38;24.13;95426.41;6160970;28;109103;-55
2024/01/13 08:23:57;;;;;;;13.90;12.43;;;;;;;20.41;23.78;95428.50;6160789;28;108806;-55
2024/01/13 08:27:00;;;;;;;14.00;12.70;;;;;;;20.45;24.00;95429.50;6153713;28;110143;-55
2024/01/13 08:30:06;;;;;;;13.50;12.20;;;;;;;20.48;24.04;95434.25;6157345;28;108931;-55
2024/01/13 08:33:09;;;;;;;13.77;12.40;;;;;;;20.50;23.67;95428.63;6159503;28;109259;-55
2024/01/13 08:36:13;;;;;;;14.37;13.07;;;;;;;20.50;23.82;95425.97;6160443;28;109259;-55
2024/01/13 08:39:16;;;;;;;14.57;13.17;;;;;;;20.48;23.72;95418.28;6149677;28;108992;-54
2024/01/13 08:42:19;;;;;;;14.20;12.90;;;;;;;20.51;23.68;95415.09;6160248;28;109166;-56
2024/01/13 08:45:29;;;;;;;13.63;12.10;;;;;;;20.55;23.84;95420.63;6160567;28;110041;-54
2024/01/13 08:48:33;;;;;;;12.93;11.73;;;;;;;20.52;23.96;95421.19;6160294;28;109031;-55
2024/01/13 08:51:36;;;;;;;12.90;11.70;;;;;;;20.49;23.59;95419.09;6150187;28;109849;-54
2024/01/13 08:54:39;;;;;;;13.47;12.17;;;;;;;20.49;23.80;95403.13;6160106;28;108977;-55
2024/01/13 08:57:42;;;;;;;13.43;12.13;;;;;;;20.52;23.77;95389.28;6157892;28;109001;-54
2024/01/13 09:00:47;;;;;;;13.27;12.03;;;;;;;20.51;23.84;95383.19;6131044;28;109178;-54
2024/01/13 09:03:51;;;;;;;12.47;11.27;;;;;;;20.51;23.74;95372.56;6154461;28;109277;-54
2024/01/13 09:06:54;;;;;;;12.07;10.97;;;;;;;20.53;23.64;95377.59;6159945;28;110175;-55
2024/01/13 09:09:57;;;;;;;12.70;11.50;;;;;;;20.52;23.53;95370.69;6159160;28;110183;-54
2024/01/13 09:13:00;;;;;;;14.70;10.73;;;;;;;20.66;23.17;95366.19;6145931;28;109198;-54
2024/01/13 09:16:05;;;;;;;12.07;10.40;;;;;;;20.60;23.89;95365.50;6159348;28;109609;-54
2024/01/13 09:19:09;;;;;;;17.10;10.17;;;;;;;20.61;23.95;95361.75;6157036;28;110249;-54
2024/01/13 09:22:13;;;;;;;14.23;9.93;;;;;;;20.59;24.09;95352.50;6159692;28;109221;-54
2024/01/13 09:25:16;;;;;;;11.10;10.00;;;;;;;20.59;24.21;95355.16;6147125;28;109887;-55
2024/01/13 09:28:19;;;;;;;14.90;9.70;;;;;;;20.58;24.22;95357.03;6159270;28;109231;-55
2024/01/13 09:31:24;;;;;;;11.17;10.07;;;;;;;20.59;24.22;95342.66;6155986;28;109123;-55
2024/01/13 09:34:41;;;;;;;11.30;9.80;;;;;;;20.60;24.37;95340.78;6147037;28;110222;-55
2024/01/13 09:37:44;;;;;;;11.07;9.93;;;;;;;20.58;24.54;95327.00;6134270;28;109364;-55
2024/01/13 09:40:47;;;;;;;10.50;9.23;;;;;;;20.57;24.56;95333.38;6151581;28;110103;-55
2024/01/13 09:44:01;;;;;;;11.07;9.97;;;;;;;20.56;24.73;95331.81;6158501;28;110119;-55
2024/01/13 09:47:06;;;;;;;11.07;10.03;;;;;;;20.57;24.55;95326.19;6147458;28;109317;-56
2024/01/13 09:50:09;;;;;;;11.00;10.00;;;;;;;20.56;24.54;95303.34;6162699;28;109190;-55
2024/01/13 09:53:20;;;;;;;11.43;10.27;;;;;;;20.46;24.18;95305.38;6163323;28;109281;-55
2024/01/13 09:56:30;;;;;;;10.60;9.50;;;;;;;20.42;23.67;95307.03;6145954;28;109040;-55
2024/01/13 09:59:33;;;;;;;10.60;9.60;;;;;;;20.42;23.25;95304.38;6141765;28;109875;-54
2024/01/13 10:02:38;;;;;;;10.97;9.87;;;;;;;20.40;22.92;95295.88;6151335;28;109274;-54
2024/01/13 10:05:42;;;;;;;11.97;10.87;;;;;;;20.37;22.75;95286.63;6144002;28;110462;-55
2024/01/13 10:08:46;;;;;;;11.50;10.40;;;;;;;20.35;22.61;95286.13;6155097;28;109196;-54
2024/01/13 10:11:49;;;;;;;12.20;11.10;;;;;;;20.34;22.42;95278.44;6156175;28;109251;-55
2024/01/13 10:14:52;;;;;;;12.83;11.57;;;;;;;20.32;22.42;95274.19;6162240;28;110310;-55
2024/01/13 10:17:57;;;;;;;13.30;12.07;;;;;;;20.33;22.55;95256.38;6155086;28;110060;-55
2024/01/13 10:21:00;;;;;;;14.10;12.90;;;;;;;20.41;21.89;95254.94;6136344;28;109297;-56
2024/01/13 10:24:04;;;;;;;13.03;11.70;;;;;;;20.50;21.88;95255.84;6147722;28;109415;-56
2024/01/13 10:27:08;;;;;;;12.67;11.00;;;;;;;20.47;21.86;95261.75;6150246;28;109495;-56
2024/01/13 10:30:14;;;;;;;12.57;11.47;;;;;;;20.44;21.81;95257.81;6160471;28;109411;-56
2024/01/13 10:33:18;;;;;;;12.43;11.33;;;;;;;20.43;21.58;95248.25;6151476;28;109853;-55
2024/01/13 10:36:24;;;;;;;11.73;10.53;;;;;;;20.43;21.89;95242.16;6161812;28;109080;-55
2024/01/13 10:39:27;;;;;;;11.67;10.57;;;;;;;20.43;22.01;95236.84;6162144;28;109561;-55
2024/01/13 10:42:37;;;;;;;11.30;10.30;;;;;;;20.42;21.54;95244.03;6161944;28;109525;-55
2024/01/13 10:45:42;;;;;;;10.97;10.03;;;;;;;20.41;21.54;95242.44;6150201;28;108892;-55
2024/01/13 10:48:50;;;;;;;11.83;10.60;;;;;;;20.40;21.31;95240.88;6153761;28;109293;-54
2024/01/13 10:51:58;;;;;;;10.57;9.67;;;;;;;20.41;21.52;95239.00;6153338;28;110049;-54
2024/01/13 10:55:04;;;;;;;12.30;10.30;;;;;;;20.48;21.04;95236.75;6151144;28;109239;-56
2024/01/13 10:58:08;;;;;;;10.70;9.60;;;;;;;20.48;21.30;95240.19;6160116;28;109290;-54
2024/01/13 11:01:11;;;;;;;12.03;10.93;;;;;;;20.44;21.44;95236.53;6137973;28;109459;-55
2024/01/13 11:04:31;;;;;;;13.10;11.80;;;;;;;20.44;21.41;95239.19;6146848;28;109114;-55
2024/01/13 11:07:35;;;;;;;12.50;11.40;;;;;;;20.42;21.47;95230.72;6134435;28;110028;-56
2024/01/13 11:10:42;;;;;;;12.97;11.87;;;;;;;20.42;21.53;95235.25;6149252;28;109095;-56
2024/01/13 11:13:50;;;;;;;14.33;12.93;;;;;;;20.39;21.12;95223.34;6147647;28;109271;-55
2024/01/13 11:16:55;;;;;;;13.37;12.17;;;;;;;20.74;20.64;95224.63;6154200;28;110175;-50
2024/01/13 11:20:01;;;;;;;12.73;11.57;;;;;;;21.26;20.12;95214.66;6140403;28;109327;-50
2024/01/13 11:23:04;;;;;;;11.50;10.50;;;;;;;21.47;20.23;95223.81;6150335;28;110279;-51
2024/01/13 11:26:10;;;;;;;11.10;10.10;;;;;;;21.57;19.96;95222.84;6143733;28;109229;-51
2024/01/13 11:29:17;;;;;;;12.07;10.97;;;;;;;21.66;20.01;95222.91;6141539;28;109080;-51
2024/01/13 11:32:21;;;;;;;10.40;9.50;;;;;;;21.70;20.26;95226.56;6150983;28;109076;-51
2024/01/13 11:35:25;;;;;;;11.50;10.50;;;;;;;21.72;20.44;95211.88;6159441;28;108918;-51
2024/01/13 11:38:29;;;;;;;11.10;10.20;;;;;;;21.73;20.08;95210.78;6148437;28;109068;-51
2024/01/13 11:41:39;;;;;;;10.73;9.80;;;;;;;21.79;20.31;95208.78;6138350;28;109717;-51
2024/01/13 11:44:44;;;;;;;11.20;10.20;;;;;;;21.56;20.48;95207.16;6148295;28;110486;-52
2024/01/13 11:47:47;;;;;;;10.97;9.97;;;;;;;21.67;20.57;95203.19;6152892;28;108980;-51
2024/01/13 11:50:52;;;;;;;11.43;10.30;;;;;;;21.76;20.73;95201.41;6151586;28;110187;-51
2024/01/13 11:53:56;;;;;;;11.60;10.50;;;;;;;21.78;20.48;95192.03;6152778;28;109024;-51
2024/01/13 11:57:01;;;;;;;11.30;10.20;;;;;;;21.78;20.56;95188.56;6161099;28;110047;-51
2024/01/13 12:00:08;;;;;;;10.87;9.80;;;;;;;21.80;20.81;95199.72;6159839;28;109189;-51
2024/01/13 12:03:11;;;;;;;11.07;9.97;;;;;;;21.84;20.72;95195.38;6147507;28;110095;-51
2024/01/13 12:06:16;;;;;;;10.70;9.60;;;;;;;21.88;20.67;95198.25;6155116;28;109538;-52
2024/01/13 12:09:21;;;;;;;10.23;9.20;;;;;;;21.89;21.18;95195.28;6155013;28;109782;-51
2024/01/13 12:12:24;;;;;;;10.50;9.27;;;;;;;21.97;21.32;95197.22;6147403;28;110033;-51
2024/01/13 12:15:29;;;;;;;10.40;9.43;;;;;;;21.97;21.10;95197.22;6147538;28;110000;-51
2024/01/13 12:18:33;;;;;;;10.77;9.33;;;;;;;22.01;21.63;95190.22;6140340;28;109037;-51
2024/01/13 12:21:38;;;;;;;8.70;7.87;;;;;;;21.94;21.61;95186.38;6151218;28;110222;-51
2024/01/13 12:24:44;;;;;;;10.57;8.50;;;;;;;21.91;21.50;95184.34;6150321;28;109484;-51
2024/01/13 12:27:48;;;;;;;9.43;8.63;;;;;;;21.92;21.90;95177.91;6148115;28;110478;-52
2024/01/13 12:30:53;;;;;;;9.40;8.57;;;;;;;21.89;21.72;95173.97;6137444;28;111723;-51
2024/01/13 12:33:57;;;;;;;9.77;8.87;;;;;;;21.91;21.77;95179.78;6149302;28;109312;-51
2024/01/13 12:37:04;;;;;;;9.27;8.47;;;;;;;21.89;21.68;95179.31;6141058;28;111033;-51
2024/01/13 12:40:08;;;;;;;9.27;8.40;;;;;;;21.87;21.44;95173.50;6141202;28;110424;-51
2024/01/13 12:43:11;;;;;;;8.87;7.97;;;;;;;21.86;21.28;95163.13;6157495;28;110139;-51
2024/01/13 12:46:14;;;;;;;9.23;8.33;;;;;;;21.85;21.37;95165.03;6158840;28;109139;-51
2024/01/13 12:49:18;;;;;;;9.20;7.93;;;;;;;21.85;21.40;95167.69;6141839;28;110999;-51
2024/01/13 12:52:23;;;;;;;8.70;8.00;;;;;;;21.84;21.29;95159.97;6144155;28;108995;-51
2024/01/13 12:55:26;;;;;;;9.57;8.67;;;;;;;21.83;21.41;95164.50;6153238;28;109952;-51
2024/01/13 12:58:29;;;;;;;9.07;8.17;;;;;;;21.84;21.29;95181.28;6154801;28;109115;-51
2024/01/13 13:01:32;;;;;;;9.00;8.20;;;;;;;21.80;21.71;95178.41;6130682;28;109778;-51
2024/01/13 13:04:36;;;;;;;10.00;9.10;;;;;;;21.85;21.37;95173.00;6158802;28;110193;-51
2024/01/13 13:07:40;;;;;;;9.63;8.83;;;;;;;21.84;21.61;95181.28;6153891;28;110678;-51
2024/01/13 13:10:43;;;;;;;9.23;8.33;;;;;;;21.86;21.13;95171.91;6152396;28;110309;-51
2024/01/13 13:13:46;;;;;;;9.50;8.57;;;;;;;21.87;21.20;95176.16;6144846;28;109627;-53
2024/01/13 13:16:50;;;;;;;8.70;7.83;;;;;;;21.88;21.33;95166.28;6153489;28;110111;-51
2024/01/13 13:19:53;;;;;;;9.43;8.63;;;;;;;21.82;21.62;95160.25;6153118;28;109728;-51
2024/01/13 13:22:59;;;;;;;8.30;7.60;;;;;;;21.83;21.36;95161.84;6151841;28;110184;-51
2024/01/13 13:26:02;;;;;;;8.27;7.47;;;;;;;21.85;21.53;95157.03;6163113;28;110211;-52
2024/01/13 13:29:06;;;;;;;8.50;7.60;;;;;;;21.86;21.90;95158.59;6163514;28;109111;-51
2024/01/13 13:32:09;;;;;;;8.57;7.87;;;;;;;21.86;21.92;95161.25;6163504;28;110264;-51
2024/01/13 13:35:13;;;;;;;8.03;7.33;;;;;;;21.84;22.13;95149.31;6152201;28;109168;-51
2024/01/13 13:38:18;;;;;;;8.53;7.77;;;;;;;21.86;21.56;95153.28;6151523;28;109048;-51
2024/01/13 13:41:21;;;;;;;8.40;7.60;;;;;;;21.84;22.18;95147.44;6149362;28;110136;-51
2024/01/13 13:44:25;;;;;;;8.70;7.90;;;;;;;21.78;21.89;95153.94;6152507;28;109089;-51
2024/01/13 13:47:27;;;;;;;8.40;7.60;;;;;;;21.81;21.69;95156.00;6142670;28;109087;-51
2024/01/13 13:50:34;;;;;;;8.10;7.40;;;;;;;21.84;21.98;95170.63;6147610;28;110193;-51
2024/01/13 13:53:39;;;;;;;7.77;7.03;;;;;;;21.83;21.62;95164.50;6159385;28;110362;-51
2024/01/13 13:56:42;;;;;;;7.90;7.20;;;;;;;21.84;21.96;95166.06;6152596;28;109217;-50
2024/01/13 13:59:45;;;;;;;7.80;7.10;;;;;;;21.82;22.32;95149.59;6158618;28;109584;-51